Terminal Aerodrome Forecast
Issued by NWS Wilmington, NC

Current Version | Previous Version | Graphics & Text | Print | Product List | Glossary Off
Versions: 1 2 3 4 5 6 7 8 9 10 11 12 13 14 15 16 17 18 19 20 21

483
FTUS42 KILM 251125
TAFMYR
TAF
KMYR 251125Z 2512/2612 22011KT P6SM SCT005
     FM251400 22011KT P6SM SCT015
     FM251900 21012KT P6SM SCT045
     FM252200 21010KT P6SM VCSH BKN040
     FM260400 VRB03KT P6SM -SHRA SCT004 OVC025
     FM260800 32004KT 2SM -SHRA BR OVC004=

USA.gov is the U.S. government's official web portal to all federal, state and local government web resources and services.